createdAt,value
2022-07-29T00:01:42.028Z,100218.50
2022-07-29T00:04:44.667Z,100217.22
2022-07-29T00:07:47.097Z,100216.41
2022-07-29T00:10:50.495Z,100210.44
2022-07-29T00:14:10.125Z,100215.16
2022-07-29T00:17:19.071Z,100217.00
2022-07-29T00:20:30.796Z,100223.16
2022-07-29T00:23:36.693Z,100210.44
2022-07-29T00:26:38.888Z,100218.06
2022-07-29T00:29:43.396Z,100222.34
2022-07-29T00:32:52.273Z,100220.88
2022-07-29T00:35:55.328Z,100224.19
2022-07-29T00:39:03.726Z,100225.41
2022-07-29T00:42:06.691Z,100226.44
2022-07-29T00:45:11.139Z,100220.28
2022-07-29T00:48:15.131Z,100221.13
2022-07-29T00:51:21.506Z,100216.00
2022-07-29T00:54:26.947Z,100218.88
2022-07-29T00:57:31.989Z,100217.81
2022-07-29T01:00:34.705Z,100222.31
2022-07-29T01:03:38.579Z,100216.09
2022-07-29T01:06:47.889Z,100216.03
2022-07-29T01:09:50.133Z,100207.63
2022-07-29T01:12:53.424Z,100215.22
2022-07-29T01:16:05.038Z,100209.56
2022-07-29T01:19:28.919Z,100205.34
2022-07-29T01:22:34.018Z,100210.66
2022-07-29T01:25:35.837Z,100214.97
2022-07-29T01:28:42.102Z,100209.16
2022-07-29T01:31:58.522Z,100210.37
2022-07-29T01:35:02.730Z,100207.13
2022-07-29T01:38:12.570Z,100206.41
2022-07-29T01:41:16.760Z,100202.84
2022-07-29T01:44:27.940Z,100208.12
2022-07-29T01:47:35.842Z,100201.81
2022-07-29T01:50:41.576Z,100202.63
2022-07-29T01:53:49.146Z,100200.75
2022-07-29T01:56:53.333Z,100199.72
2022-07-29T01:59:57.109Z,100194.38
2022-07-29T02:03:00.715Z,100204.22
2022-07-29T02:06:04.283Z,100193.47
2022-07-29T02:09:08.533Z,100193.47
2022-07-29T02:12:16.134Z,100200.59
2022-07-29T02:15:18.873Z,100203.00
2022-07-29T02:18:27.935Z,100204.56
2022-07-29T02:21:33.522Z,100202.47
2022-07-29T02:24:39.426Z,100195.12
2022-07-29T02:27:43.549Z,100191.25
2022-07-29T02:30:47.263Z,100190.81
2022-07-29T02:33:50.552Z,100187.66
2022-07-29T02:36:54.855Z,100185.81
2022-07-29T02:39:58.640Z,100201.53
2022-07-29T02:43:11.181Z,100190.84
2022-07-29T02:46:28.921Z,100195.91
2022-07-29T02:49:41.741Z,100188.50
2022-07-29T02:52:51.092Z,100181.53
2022-07-29T02:56:01.144Z,100177.81
2022-07-29T02:59:05.753Z,100200.84
2022-07-29T03:02:08.575Z,100194.06
2022-07-29T03:05:15.701Z,100190.59
2022-07-29T03:08:22.323Z,100189.25
2022-07-29T03:11:41.468Z,100193.37
2022-07-29T03:14:47.811Z,100191.91
2022-07-29T03:17:51.203Z,100191.03
2022-07-29T03:20:53.221Z,100190.84
2022-07-29T03:23:55.733Z,100192.84
2022-07-29T03:26:58.037Z,100195.25
2022-07-29T03:30:05.894Z,100193.78
2022-07-29T03:33:19.379Z,100194.97
2022-07-29T03:36:24.776Z,100194.78
2022-07-29T03:39:33.332Z,100195.34
2022-07-29T03:42:37.002Z,100188.94
2022-07-29T03:45:40.191Z,100191.41
2022-07-29T03:48:50.206Z,100194.97
2022-07-29T03:51:53.735Z,100199.94
2022-07-29T03:54:57.268Z,100207.25
2022-07-29T03:58:05.347Z,100198.62
2022-07-29T04:01:08.087Z,100197.72
2022-07-29T04:04:10.115Z,100202.69
2022-07-29T04:07:21.373Z,100202.69
2022-07-29T04:10:32.016Z,100205.34
2022-07-29T04:13:42.402Z,100212.12
2022-07-29T04:16:47.533Z,100204.38
2022-07-29T04:19:49.914Z,100209.50
2022-07-29T04:22:52.425Z,100206.09
2022-07-29T04:25:54.493Z,100209.69
2022-07-29T04:28:56.514Z,100205.28
2022-07-29T04:31:58.391Z,100209.66
2022-07-29T04:35:00.496Z,100206.47
2022-07-29T04:41:06.815Z,100208.28
2022-07-29T04:44:09.313Z,100219.59
2022-07-29T04:47:11.578Z,100210.41
2022-07-29T04:50:14.383Z,100215.28
2022-07-29T04:53:25.097Z,100208.12
2022-07-29T04:56:27.319Z,100212.00
2022-07-29T04:59:29.539Z,100211.62
2022-07-29T05:02:38.743Z,100209.19
2022-07-29T05:05:43.979Z,100210.13
2022-07-29T05:08:55.471Z,100211.72
2022-07-29T05:12:03.153Z,100214.16
2022-07-29T05:15:05.441Z,100212.56
2022-07-29T05:18:12.845Z,100211.41
2022-07-29T05:21:18.131Z,100215.34
2022-07-29T05:24:20.711Z,100216.81
2022-07-29T05:27:23.825Z,100216.56
2022-07-29T05:30:27.310Z,100215.06
2022-07-29T05:33:35.440Z,100219.94
2022-07-29T05:36:39.023Z,100213.25
2022-07-29T05:39:48.631Z,100214.00
2022-07-29T05:42:52.808Z,100208.88
2022-07-29T05:45:55.349Z,100218.94
2022-07-29T05:49:00.599Z,100227.53
2022-07-29T05:52:02.819Z,100226.56
2022-07-29T05:55:06.693Z,100224.13
2022-07-29T05:58:10.180Z,100224.75
2022-07-29T06:01:13.827Z,100220.03
2022-07-29T06:04:16.152Z,100230.28
2022-07-29T06:07:18.755Z,100227.25
2022-07-29T06:10:24.004Z,100229.28
2022-07-29T06:13:32.340Z,100230.31
2022-07-29T06:16:35.315Z,100233.81
2022-07-29T06:19:39.638Z,100236.28
2022-07-29T06:22:42.509Z,100229.28
2022-07-29T06:25:44.747Z,100230.53
2022-07-29T06:28:54.872Z,100238.31
2022-07-29T06:31:57.160Z,100238.75
2022-07-29T06:35:24.410Z,100243.66
2022-07-29T06:38:30.841Z,100242.22
2022-07-29T06:41:38.290Z,100243.19
2022-07-29T06:44:41.426Z,100244.00
2022-07-29T06:47:43.509Z,100243.97
2022-07-29T06:50:45.670Z,100249.75
2022-07-29T06:53:58.322Z,100255.69
2022-07-29T06:57:04.167Z,100253.87
2022-07-29T07:00:08.776Z,100254.16
2022-07-29T07:03:10.736Z,100250.13
2022-07-29T07:06:15.973Z,100248.62
2022-07-29T07:09:19.005Z,100246.19
2022-07-29T07:12:21.128Z,100249.56
2022-07-29T07:15:23.309Z,100247.75
2022-07-29T07:18:41.636Z,100256.59
2022-07-29T07:21:44.735Z,100242.56
2022-07-29T07:24:46.871Z,100245.75
2022-07-29T07:27:48.852Z,100234.94
2022-07-29T07:30:53.959Z,100247.37
2022-07-29T07:33:56.106Z,100242.03
2022-07-29T07:36:59.239Z,100248.31
2022-07-29T07:40:02.561Z,100249.12
2022-07-29T07:43:05.045Z,100245.06
2022-07-29T07:46:07.159Z,100247.81
2022-07-29T07:49:09.741Z,100249.53
2022-07-29T07:52:12.430Z,100252.91
2022-07-29T07:55:16.111Z,100257.25
2022-07-29T07:58:18.437Z,100254.66
2022-07-29T08:01:24.865Z,100248.19
2022-07-29T08:04:28.982Z,100250.00
2022-07-29T08:07:32.029Z,100243.91
2022-07-29T08:10:52.737Z,100249.97
2022-07-29T08:13:55.906Z,100244.53
2022-07-29T08:17:00.510Z,100242.84
2022-07-29T08:20:03.784Z,100244.03
2022-07-29T08:23:09.206Z,100250.63
2022-07-29T08:26:13.928Z,100233.72
2022-07-29T08:29:19.920Z,100228.22
2022-07-29T08:32:50.910Z,100235.22
2022-07-29T08:35:46.895Z,100226.63
2022-07-29T08:38:51.050Z,100229.44
2022-07-29T08:41:57.352Z,100235.94
2022-07-29T08:45:00.811Z,100225.72
2022-07-29T08:48:03.455Z,100222.06
2022-07-29T08:51:06.781Z,100225.75
2022-07-29T08:54:11.706Z,100218.81
2022-07-29T08:57:15.186Z,100223.22
2022-07-29T09:00:19.558Z,100213.69
2022-07-29T09:03:25.538Z,100211.03
2022-07-29T09:06:32.654Z,100207.72
2022-07-29T09:09:35.348Z,100207.19
2022-07-29T09:12:38.335Z,100207.16
2022-07-29T09:15:40.894Z,100209.50
2022-07-29T09:18:45.416Z,100203.97
2022-07-29T09:22:00.342Z,100202.84
2022-07-29T09:25:04.461Z,100209.50
2022-07-29T09:28:07.641Z,100196.72
2022-07-29T09:31:09.629Z,100200.97
2022-07-29T09:34:13.040Z,100192.44
2022-07-29T09:37:27.684Z,100188.75
2022-07-29T09:40:29.974Z,100183.03
2022-07-29T09:43:32.502Z,100188.00
2022-07-29T09:46:36.546Z,100180.81
2022-07-29T09:49:52.253Z,100185.91
2022-07-29T09:52:57.037Z,100182.22
2022-07-29T09:56:00.341Z,100175.16
2022-07-29T09:59:09.061Z,100168.41
2022-07-29T10:02:20.291Z,100163.75
2022-07-29T10:05:27.135Z,100165.13
2022-07-29T10:08:39.735Z,100169.50
2022-07-29T10:11:49.579Z,100165.66
2022-07-29T10:14:52.430Z,100166.06
2022-07-29T10:17:55.282Z,100165.78
2022-07-29T10:20:57.978Z,100160.62
2022-07-29T10:24:01.136Z,100157.53
2022-07-29T10:27:04.815Z,100159.97
2022-07-29T10:30:07.776Z,100151.63
2022-07-29T10:33:28.334Z,100150.78
2022-07-29T10:36:31.625Z,100163.75
2022-07-29T10:39:58.566Z,100158.66
2022-07-29T10:43:18.905Z,100150.53
2022-07-29T10:46:22.623Z,100145.34
2022-07-29T10:49:30.592Z,100139.81
2022-07-29T10:52:49.570Z,100139.00
2022-07-29T10:55:53.775Z,100136.56
2022-07-29T10:59:14.577Z,100137.75
2022-07-29T11:02:41.808Z,100126.78
2022-07-29T11:05:56.697Z,100125.78
2022-07-29T11:09:25.768Z,100126.03
2022-07-29T11:12:37.148Z,100127.16
2022-07-29T11:15:57.065Z,100122.06
2022-07-29T11:19:13.135Z,100114.44
2022-07-29T11:22:36.512Z,100111.50
2022-07-29T11:25:50.832Z,100111.81
2022-07-29T11:28:55.527Z,100109.22
2022-07-29T11:32:09.731Z,100098.16
2022-07-29T11:35:37.098Z,100097.09
2022-07-29T11:38:42.260Z,100084.72
2022-07-29T11:41:44.291Z,100086.69
2022-07-29T11:45:43.798Z,100080.91
2022-07-29T11:48:37.032Z,100076.50
2022-07-29T11:51:48.564Z,100066.19
2022-07-29T11:54:58.136Z,100071.66
2022-07-29T11:58:04.853Z,100071.37
2022-07-29T12:01:07.481Z,100071.22
2022-07-29T12:04:09.907Z,100078.50
2022-07-29T12:07:15.521Z,100074.81
2022-07-29T12:10:20.151Z,100074.13
2022-07-29T12:13:39.632Z,100066.03
2022-07-29T12:16:41.673Z,100060.13
2022-07-29T12:19:44.762Z,100063.44
2022-07-29T12:22:49.447Z,100056.63
2022-07-29T12:25:51.695Z,100057.00
2022-07-29T12:28:56.039Z,100053.41
2022-07-29T12:32:00.436Z,100051.78
2022-07-29T12:35:07.941Z,100040.97
2022-07-29T12:38:11.671Z,100044.16
2022-07-29T12:41:13.808Z,100030.31
2022-07-29T12:44:16.283Z,100029.56
2022-07-29T12:47:21.672Z,100028.66
2022-07-29T12:50:26.443Z,100018.00
2022-07-29T12:53:29.292Z,100010.69
2022-07-29T12:56:46.549Z,100013.59
2022-07-29T13:00:04.402Z,100008.12
2022-07-29T13:03:07.270Z,100014.22
2022-07-29T13:06:28.130Z,100010.78
2022-07-29T13:09:39.163Z,100008.75
2022-07-29T13:13:01.081Z,100004.19
2022-07-29T13:16:07.034Z,100003.72
2022-07-29T13:19:10.445Z,99981.56
2022-07-29T13:22:24.590Z,99982.59
2022-07-29T13:25:28.125Z,99985.66
2022-07-29T13:28:30.464Z,99980.63
2022-07-29T13:31:32.667Z,99980.84
2022-07-29T13:34:34.586Z,99978.84
2022-07-29T13:37:39.783Z,99976.16
2022-07-29T13:40:42.188Z,99974.62
2022-07-29T13:43:44.818Z,99965.09
2022-07-29T13:46:46.911Z,99948.72
2022-07-29T13:49:49.719Z,99957.28
2022-07-29T13:52:52.549Z,99958.44
2022-07-29T13:55:55.025Z,99951.59
2022-07-29T13:58:57.088Z,99958.81
2022-07-29T14:02:01.041Z,99956.75
2022-07-29T14:05:08.035Z,99950.38
2022-07-29T14:08:10.909Z,99934.94
2022-07-29T14:11:12.942Z,99937.03
2022-07-29T14:14:14.925Z,99939.25
2022-07-29T14:17:16.912Z,99936.97
2022-07-29T14:20:19.155Z,99936.50
2022-07-29T14:42:35.035Z,99920.19
2022-07-29T14:45:37.630Z,99916.69
2022-07-29T14:48:40.648Z,99911.06
2022-07-29T14:51:43.091Z,99900.09
2022-07-29T14:54:45.102Z,99911.91
2022-07-29T14:57:47.418Z,99896.06
2022-07-29T15:00:49.493Z,99892.56
2022-07-29T15:03:51.746Z,99892.59
2022-07-29T15:06:54.566Z,99880.53
2022-07-29T15:09:59.806Z,99878.03
2022-07-29T15:13:01.815Z,99883.00
2022-07-29T15:16:04.227Z,99880.97
2022-07-29T15:19:06.316Z,99879.31
2022-07-29T15:22:08.375Z,99879.53
2022-07-29T15:25:11.026Z,99876.59
2022-07-29T15:28:13.194Z,99878.47
2022-07-29T15:31:15.321Z,99868.50
2022-07-29T15:34:18.091Z,99872.09
2022-07-29T15:37:21.438Z,99863.09
2022-07-29T15:40:23.957Z,99860.56
2022-07-29T15:43:26.600Z,99856.75
2022-07-29T15:46:48.051Z,99857.59
2022-07-29T15:49:50.662Z,99852.25
2022-07-29T15:52:52.633Z,99851.41
2022-07-29T15:55:54.712Z,99854.13
2022-07-29T15:58:56.784Z,99848.69
2022-07-29T16:01:58.881Z,99846.81
2022-07-29T16:05:01.014Z,99844.59
2022-07-29T16:08:03.053Z,99841.31
2022-07-29T16:11:05.027Z,99846.25
2022-07-29T16:14:09.260Z,99845.69
2022-07-29T16:17:14.965Z,99843.16
2022-07-29T16:20:17.141Z,99838.63
2022-07-29T16:23:19.559Z,99840.66
2022-07-29T16:26:22.627Z,99845.84
2022-07-29T16:29:24.587Z,99845.31
2022-07-29T16:32:27.015Z,99843.72
2022-07-29T16:35:39.077Z,99841.00
2022-07-29T16:38:47.326Z,99835.03
2022-07-29T16:41:50.691Z,99835.88
2022-07-29T16:44:53.205Z,99830.72
2022-07-29T16:48:00.179Z,99829.38
2022-07-29T16:51:03.286Z,99836.69
2022-07-29T16:54:05.688Z,99832.38
2022-07-29T16:57:07.573Z,99830.72
2022-07-29T17:00:11.217Z,99835.88
2022-07-29T17:03:13.715Z,99832.03
2022-07-29T17:06:16.010Z,99835.50
2022-07-29T17:09:17.894Z,99836.03
2022-07-29T17:12:21.508Z,99836.22
2022-07-29T17:15:23.861Z,99836.47
2022-07-29T17:18:25.985Z,99831.56
2022-07-29T17:21:28.502Z,99834.16
2022-07-29T17:24:30.921Z,99832.47
2022-07-29T17:27:34.631Z,99836.69
2022-07-29T17:30:36.683Z,99841.72
2022-07-29T17:33:38.836Z,99833.28
2022-07-29T17:36:41.458Z,99836.44
2022-07-29T17:39:43.644Z,99836.34
2022-07-29T17:42:45.940Z,99825.47
2022-07-29T17:45:48.840Z,99827.53
2022-07-29T17:48:57.396Z,99834.13
2022-07-29T17:52:01.060Z,99838.53
2022-07-29T17:55:03.306Z,99832.19
2022-07-29T17:58:06.553Z,99831.50
2022-07-29T18:01:10.914Z,99834.81
2022-07-29T18:04:13.442Z,99833.81
2022-07-29T18:07:17.541Z,99839.78
2022-07-29T18:10:19.490Z,99837.97
2022-07-29T18:13:21.950Z,99839.59
2022-07-29T18:16:24.023Z,99840.75
2022-07-29T18:19:26.115Z,99845.06
2022-07-29T18:22:28.440Z,99839.44
2022-07-29T18:25:32.380Z,99851.84
2022-07-29T18:28:36.471Z,99844.09
2022-07-29T18:31:39.063Z,99843.84
2022-07-29T18:34:40.999Z,99848.22
2022-07-29T18:38:01.667Z,99857.97
2022-07-29T18:41:05.099Z,99857.94
2022-07-29T18:44:08.197Z,99853.44
2022-07-29T18:47:12.009Z,99859.41
2022-07-29T18:50:14.839Z,99865.72
2022-07-29T18:53:18.285Z,99860.38
2022-07-29T18:56:22.346Z,99867.38
2022-07-29T18:59:26.115Z,99876.38
2022-07-29T19:02:28.410Z,99879.37
2022-07-29T19:05:32.041Z,99890.00
2022-07-29T19:08:34.204Z,99894.41
2022-07-29T19:11:36.899Z,99900.97
2022-07-29T19:14:39.445Z,99907.59
2022-07-29T19:17:42.195Z,99903.13
2022-07-29T19:20:44.322Z,99917.47
2022-07-29T19:24:01.474Z,99911.72
2022-07-29T19:27:08.697Z,99915.53
2022-07-29T19:30:12.644Z,99918.91
2022-07-29T19:33:17.641Z,99912.50
2022-07-29T19:36:20.024Z,99909.13
2022-07-29T19:39:34.896Z,99917.56
2022-07-29T19:42:38.884Z,99911.50
2022-07-29T19:45:41.057Z,99900.81
2022-07-29T19:48:43.459Z,99903.38
2022-07-29T19:51:45.447Z,99903.16
2022-07-29T19:54:51.987Z,99905.38
2022-07-29T19:57:54.802Z,99896.06
2022-07-29T20:00:57.189Z,99900.50
2022-07-29T20:04:01.811Z,99900.84
2022-07-29T20:07:04.291Z,99907.84
2022-07-29T20:10:07.615Z,99902.84
2022-07-29T20:13:13.765Z,99895.72
2022-07-29T20:16:16.265Z,99900.25
2022-07-29T20:19:21.765Z,99910.28
2022-07-29T20:22:23.682Z,99908.25
2022-07-29T20:25:26.027Z,99904.41
2022-07-29T20:28:32.019Z,99919.56
2022-07-29T20:31:35.488Z,99918.38
2022-07-29T20:34:37.798Z,99917.78
2022-07-29T20:37:52.533Z,99917.03
2022-07-29T20:40:58.965Z,99917.72
2022-07-29T20:44:01.997Z,99923.25
2022-07-29T20:47:05.330Z,99933.37
2022-07-29T20:50:07.714Z,99925.72
2022-07-29T20:53:09.680Z,99932.16
2022-07-29T20:56:14.346Z,99935.03
2022-07-29T20:59:18.341Z,99936.03
2022-07-29T21:02:20.260Z,99934.19
2022-07-29T21:05:22.435Z,99938.78
2022-07-29T21:08:26.477Z,99941.25
2022-07-29T21:11:43.485Z,99932.53
2022-07-29T21:14:48.051Z,99932.59
2022-07-29T21:17:56.805Z,99953.56
2022-07-29T21:20:59.358Z,99948.13
2022-07-29T21:24:02.849Z,99949.09
2022-07-29T21:27:23.925Z,99950.78
2022-07-29T21:30:25.958Z,99943.84
2022-07-29T21:33:29.202Z,99949.69
2022-07-29T21:39:53.138Z,99949.25
2022-07-29T21:42:55.115Z,99951.59
2022-07-29T21:45:57.490Z,99963.97
2022-07-29T21:48:59.851Z,99954.78
2022-07-29T21:52:01.850Z,99956.47
2022-07-29T21:55:03.912Z,99970.47
2022-07-29T21:58:06.565Z,99971.72
2022-07-29T22:01:08.629Z,99981.84
2022-07-29T22:04:10.666Z,99979.63
2022-07-29T22:07:13.072Z,99991.13
2022-07-29T22:10:15.359Z,99981.50
2022-07-29T22:13:18.447Z,99984.41
2022-07-29T22:16:20.480Z,99993.44
2022-07-29T22:19:27.630Z,99990.03
2022-07-29T22:22:31.964Z,100001.53
2022-07-29T22:25:34.334Z,99989.22
2022-07-29T22:28:36.331Z,99995.59
2022-07-29T22:31:38.311Z,99994.41
2022-07-29T22:34:41.071Z,99990.72
2022-07-29T22:37:44.791Z,99992.78
2022-07-29T22:40:48.699Z,99997.09
2022-07-29T22:43:54.222Z,99987.88
2022-07-29T22:46:59.269Z,99994.03
2022-07-29T22:50:01.807Z,99994.00
2022-07-29T22:53:08.611Z,99989.31
2022-07-29T22:56:17.299Z,99977.66
2022-07-29T22:59:20.810Z,99971.06
2022-07-29T23:02:26.934Z,99976.00
2022-07-29T23:05:32.123Z,99978.69
2022-07-29T23:08:34.647Z,99969.63
2022-07-29T23:11:36.813Z,99965.75
2022-07-29T23:14:38.947Z,99977.84
2022-07-29T23:17:41.101Z,99975.81
2022-07-29T23:20:43.809Z,99963.69
2022-07-29T23:23:45.831Z,99959.81
2022-07-29T23:26:48.133Z,99963.91
2022-07-29T23:29:50.310Z,99958.75
2022-07-29T23:32:54.584Z,99957.72
2022-07-29T23:36:01.368Z,99939.91
2022-07-29T23:39:03.485Z,99951.34
2022-07-29T23:42:05.508Z,99946.25
2022-07-29T23:45:11.309Z,99939.28
2022-07-29T23:48:14.744Z,99936.19
2022-07-29T23:51:16.642Z,99931.03
2022-07-29T23:54:23.551Z,99922.84
2022-07-29T23:57:37.619Z,99922.66
